Time;durP1;ratioP1;P1;durP2;ratioP2;P2;SDS_P1;SDS_P2;PMS_P1;PMS_P2;Temp;Humidity;BMP_temperature;BMP_pressure;BME280_temperature;BME280_humidity;BME280_pressure;Samples;Min_cycle;Max_cycle;Signal;HPM_P1;HPM_P2
2023/06/18 03:00:45;;;;;;;6.25;5.22;;;24.60;37.60;;;;;;6045943;23;46202;-63
2023/06/18 03:03:14;;;;;;;7.10;5.80;;;24.60;37.70;;;;;;4908951;28;45895;-64
2023/06/18 03:05:40;;;;;;;5.60;5.00;;;24.60;37.60;;;;;;4956253;28;45220;-65
2023/06/18 03:08:06;;;;;;;6.72;5.60;;;24.60;37.60;;;;;;4960673;28;45078;-65
2023/06/18 03:10:32;;;;;;;8.30;6.07;;;24.50;37.60;;;;;;4941184;28;45369;-65
2023/06/18 03:12:57;;;;;;;7.00;5.85;;;24.60;37.60;;;;;;4948800;28;45081;-65
2023/06/18 03:15:23;;;;;;;6.78;5.50;;;24.50;37.70;;;;;;4940610;28;46361;-66
2023/06/18 03:17:48;;;;;;;7.40;5.13;;;24.60;37.60;;;;;;4948157;28;45063;-66
2023/06/18 03:20:15;;;;;;;6.68;5.07;;;24.50;37.70;;;;;;4946303;28;44724;-66
2023/06/18 03:22:40;;;;;;;6.32;5.72;;;24.50;37.60;;;;;;4942630;28;45299;-65
2023/06/18 03:25:06;;;;;;;6.53;5.57;;;24.50;37.70;;;;;;4944350;28;45935;-65
2023/06/18 03:27:32;;;;;;;6.15;5.40;;;24.40;37.70;;;;;;4927757;28;44930;-65
2023/06/18 03:29:58;;;;;;;7.50;6.43;;;24.50;37.70;;;;;;4963017;28;45068;-63
2023/06/18 03:32:23;;;;;;;6.07;5.45;;;24.50;37.90;;;;;;4923184;28;45280;-66
2023/06/18 03:34:50;;;;;;;6.90;6.07;;;24.50;37.90;;;;;;4963879;28;45917;-66
2023/06/18 03:37:17;;;;;;;6.60;5.88;;;24.40;37.70;;;;;;4936746;28;44857;-66
2023/06/18 03:39:43;;;;;;;7.93;5.90;;;24.40;37.80;;;;;;4948012;28;44880;-65
2023/06/18 03:42:08;;;;;;;6.35;5.25;;;24.40;37.70;;;;;;4941861;28;44979;-65
2023/06/18 03:44:34;;;;;;;6.30;5.70;;;24.40;37.80;;;;;;4947271;28;45945;-64
2023/06/18 03:46:59;;;;;;;7.65;6.22;;;24.40;37.80;;;;;;4935051;28;45351;-66
2023/06/18 03:49:25;;;;;;;6.50;5.85;;;24.40;37.90;;;;;;4930632;28;45210;-65
2023/06/18 03:51:50;;;;;;;7.05;5.80;;;24.40;37.90;;;;;;4940947;28;45225;-64
2023/06/18 03:54:16;;;;;;;7.28;5.65;;;24.30;37.90;;;;;;4959479;28;45302;-66
2023/06/18 03:56:42;;;;;;;6.28;5.68;;;24.40;38.00;;;;;;4942372;28;45300;-65
2023/06/18 03:59:07;;;;;;;6.57;5.97;;;24.40;38.00;;;;;;4960648;28;44638;-65
2023/06/18 04:01:33;;;;;;;6.30;5.60;;;24.30;38.00;;;;;;4948738;28;45283;-66
2023/06/18 04:03:59;;;;;;;11.23;6.03;;;24.30;38.10;;;;;;4942675;28;45876;-65
2023/06/18 04:06:24;;;;;;;6.68;5.30;;;24.30;38.10;;;;;;4942100;28;45218;-66
2023/06/18 04:08:50;;;;;;;6.13;5.45;;;24.30;38.20;;;;;;4947363;28;44695;-64
2023/06/18 04:11:16;;;;;;;6.00;5.40;;;24.30;38.20;;;;;;4942580;28;44981;-64
2023/06/18 04:13:42;;;;;;;9.45;5.68;;;24.30;38.20;;;;;;4950281;28;45128;-65
2023/06/18 04:16:09;;;;;;;6.97;6.03;;;24.20;38.20;;;;;;4949816;28;45622;-65
2023/06/18 04:18:34;;;;;;;6.03;4.75;;;24.20;38.20;;;;;;4947905;28;44946;-66
2023/06/18 04:21:00;;;;;;;6.65;5.78;;;24.20;38.20;;;;;;4956857;28;44852;-64
2023/06/18 04:23:25;;;;;;;7.35;5.93;;;24.20;38.30;;;;;;4947929;28;46129;-66
2023/06/18 04:25:51;;;;;;;7.28;5.68;;;24.20;38.30;;;;;;4942762;28;44958;-65
2023/06/18 04:28:17;;;;;;;7.00;5.90;;;24.20;38.30;;;;;;4943127;28;45303;-65
2023/06/18 04:30:42;;;;;;;7.15;5.78;;;24.20;38.30;;;;;;4939918;28;45152;-66
2023/06/18 04:33:08;;;;;;;6.13;5.07;;;24.20;38.40;;;;;;4946798;28;46249;-65
2023/06/18 04:35:33;;;;;;;5.65;5.07;;;24.20;38.40;;;;;;4945447;28;45528;-65
2023/06/18 04:37:59;;;;;;;6.68;5.78;;;24.20;38.50;;;;;;4944372;28;44711;-64
2023/06/18 04:40:25;;;;;;;6.28;5.68;;;24.20;38.40;;;;;;4944154;28;45295;-65
2023/06/18 04:42:50;;;;;;;7.18;5.80;;;24.20;38.50;;;;;;4948003;28;45909;-65
2023/06/18 04:45:16;;;;;;;6.65;5.80;;;24.20;38.60;;;;;;4943828;28;45115;-65
2023/06/18 04:47:41;;;;;;;6.25;5.45;;;24.20;38.70;;;;;;4946280;28;45288;-65
2023/06/18 04:50:08;;;;;;;5.82;5.20;;;24.20;38.80;;;;;;4944823;28;45563;-65
2023/06/18 04:52:34;;;;;;;7.53;5.43;;;24.20;38.70;;;;;;4928416;28;46299;-65
2023/06/18 04:54:59;;;;;;;5.40;4.90;;;24.20;38.80;;;;;;4949445;28;44882;-64
2023/06/18 04:57:26;;;;;;;6.50;5.80;;;24.20;38.70;;;;;;4961017;28;45040;-66
2023/06/18 04:59:52;;;;;;;6.40;5.75;;;24.20;38.80;;;;;;4950886;28;44981;-66
2023/06/18 05:02:18;;;;;;;8.23;5.55;;;24.20;38.90;;;;;;4949542;28;45583;-66
2023/06/18 05:04:43;;;;;;;5.82;5.20;;;24.20;38.90;;;;;;4934630;28;45168;-66
2023/06/18 05:07:09;;;;;;;5.32;4.72;;;24.20;39.00;;;;;;4950625;28;45433;-65
2023/06/18 05:09:35;;;;;;;5.85;5.25;;;24.20;39.00;;;;;;4951063;28;45216;-63
2023/06/18 05:12:00;;;;;;;6.60;5.45;;;24.20;39.00;;;;;;4965639;28;45940;-64
2023/06/18 05:14:27;;;;;;;6.32;4.78;;;24.20;39.00;;;;;;4939937;28;45463;-66
2023/06/18 05:16:53;;;;;;;5.95;5.30;;;24.20;39.00;;;;;;4958782;28;44949;-65
2023/06/18 05:19:19;;;;;;;6.57;5.20;;;24.20;39.10;;;;;;4966723;28;45434;-66
2023/06/18 05:21:44;;;;;;;5.70;5.15;;;24.20;39.20;;;;;;4963139;28;45139;-66
2023/06/18 05:24:10;;;;;;;6.03;5.40;;;24.20;39.10;;;;;;4956931;28;45018;-66
2023/06/18 05:26:35;;;;;;;6.32;5.07;;;24.30;39.20;;;;;;4963835;28;44984;-65
2023/06/18 05:29:01;;;;;;;6.97;5.00;;;24.30;39.30;;;;;;4966278;28;44931;-64
2023/06/18 05:31:30;;;;;;;8.50;5.88;;;24.20;39.20;;;;;;4959522;28;45321;-65
2023/06/18 05:33:55;;;;;;;5.60;5.00;;;24.20;39.30;;;;;;4951181;28;44973;-64
2023/06/18 05:36:24;;;;;;;6.13;5.53;;;24.30;39.40;;;;;;4962750;28;45172;-63
2023/06/18 05:38:51;;;;;;;7.88;5.15;;;24.20;39.40;;;;;;4934311;28;44948;-64
2023/06/18 05:41:17;;;;;;;8.65;5.97;;;24.20;39.40;;;;;;4956871;28;45923;-66
2023/06/18 05:43:43;;;;;;;6.53;5.50;;;24.30;39.40;;;;;;4935168;28;45766;-66
2023/06/18 05:46:08;;;;;;;8.95;5.57;;;24.30;39.40;;;;;;4959318;28;45110;-64
2023/06/18 05:48:34;;;;;;;8.43;6.15;;;24.30;39.40;;;;;;4948203;28;45032;-65
2023/06/18 05:51:00;;;;;;;7.60;5.53;;;24.30;39.40;;;;;;4957808;28;45299;-64
2023/06/18 05:53:26;;;;;;;7.30;6.05;;;24.30;39.50;;;;;;4968136;28;45141;-66
2023/06/18 05:55:51;;;;;;;9.48;6.78;;;24.30;39.60;;;;;;4963658;28;44966;-65
2023/06/18 05:58:17;;;;;;;6.95;6.25;;;24.30;39.60;;;;;;4947330;28;45936;-66
2023/06/18 06:00:43;;;;;;;9.75;6.63;;;24.30;39.80;;;;;;4947928;28;45058;-63
2023/06/18 06:03:11;;;;;;;7.10;5.82;;;24.30;39.90;;;;;;4965541;28;44998;-64
2023/06/18 06:05:36;;;;;;;8.13;6.55;;;24.30;39.90;;;;;;4948755;28;44809;-64
2023/06/18 06:08:02;;;;;;;6.22;5.22;;;24.40;39.90;;;;;;4948897;28;45326;-64
2023/06/18 06:10:28;;;;;;;9.15;6.13;;;24.40;39.90;;;;;;4961024;28;45252;-64
2023/06/18 06:12:53;;;;;;;7.72;6.50;;;24.40;39.90;;;;;;4947116;28;46235;-65
2023/06/18 06:15:19;;;;;;;7.55;5.93;;;24.40;40.00;;;;;;4955512;28;45764;-62
2023/06/18 06:17:45;;;;;;;7.18;5.97;;;24.40;40.00;;;;;;4948438;28;44917;-66
2023/06/18 06:20:11;;;;;;;6.53;5.80;;;24.40;39.80;;;;;;4943557;28;45287;-65
2023/06/18 06:22:37;;;;;;;6.43;5.55;;;24.40;39.90;;;;;;4950801;28;45323;-65
2023/06/18 06:25:06;;;;;;;6.82;6.13;;;24.40;40.10;;;;;;4966319;28;45282;-64
2023/06/18 06:27:33;;;;;;;7.68;5.97;;;24.50;40.20;;;;;;4918290;28;44839;-65
2023/06/18 06:30:03;;;;;;;8.10;5.88;;;24.50;40.00;;;;;;4928417;28;45294;-65
2023/06/18 06:32:28;;;;;;;6.25;5.45;;;24.50;40.10;;;;;;4930412;28;45674;-65
2023/06/18 06:34:54;;;;;;;6.10;5.28;;;24.50;40.10;;;;;;4952690;28;45495;-64
2023/06/18 06:37:20;;;;;;;6.82;5.93;;;24.50;40.10;;;;;;4946854;28;46171;-65
2023/06/18 06:39:45;;;;;;;6.63;5.38;;;24.60;40.30;;;;;;4953715;28;45015;-63
2023/06/18 06:42:12;;;;;;;6.80;5.90;;;24.60;40.20;;;;;;4946727;28;46611;-64
2023/06/18 06:44:37;;;;;;;6.45;5.25;;;24.60;40.20;;;;;;4938621;28;45135;-65
2023/06/18 06:47:03;;;;;;;6.60;5.53;;;24.70;40.20;;;;;;4942002;28;45251;-64
2023/06/18 06:49:28;;;;;;;6.50;5.47;;;24.70;40.10;;;;;;4951280;28;45580;-64
2023/06/18 06:51:55;;;;;;;6.30;5.60;;;24.70;40.00;;;;;;4945345;28;45623;-65
2023/06/18 06:54:21;;;;;;;9.23;6.43;;;24.80;40.00;;;;;;4949671;28;45232;-65
2023/06/18 06:56:46;;;;;;;8.98;5.80;;;24.80;39.90;;;;;;4914242;28;45144;-65
2023/06/18 06:59:12;;;;;;;6.85;5.65;;;24.80;39.90;;;;;;4951780;28;46897;-63
2023/06/18 07:01:39;;;;;;;10.80;6.00;;;24.90;39.90;;;;;;4926945;28;45408;-65
2023/06/18 07:04:05;;;;;;;6.55;5.75;;;24.90;39.80;;;;;;4948648;28;44690;-64
2023/06/18 07:06:31;;;;;;;12.88;6.07;;;24.90;39.70;;;;;;4947410;28;45539;-65
2023/06/18 07:08:57;;;;;;;6.50;5.78;;;25.00;39.70;;;;;;4937639;28;46858;-64
2023/06/18 07:11:23;;;;;;;8.13;5.88;;;25.10;39.50;;;;;;4944684;28;45277;-64
2023/06/18 07:13:48;;;;;;;6.15;5.55;;;25.20;39.60;;;;;;4923600;28;45723;-66
2023/06/18 07:16:14;;;;;;;9.80;5.13;;;25.20;39.50;;;;;;4946140;28;44696;-65
2023/06/18 07:18:40;;;;;;;7.90;5.88;;;25.20;39.60;;;;;;4949158;28;47062;-64
2023/06/18 07:21:05;;;;;;;6.95;5.68;;;25.30;39.60;;;;;;4915962;28;45148;-62
2023/06/18 07:23:31;;;;;;;7.50;6.50;;;25.30;39.60;;;;;;4936324;28;44883;-65
2023/06/18 07:25:56;;;;;;;7.72;6.60;;;25.30;39.60;;;;;;4948993;28;44700;-66
2023/06/18 07:28:22;;;;;;;7.35;6.43;;;25.30;39.50;;;;;;4957508;28;46188;-63
2023/06/18 07:30:47;;;;;;;6.13;5.50;;;25.40;39.50;;;;;;4938469;28;45276;-65
2023/06/18 07:33:14;;;;;;;6.88;6.00;;;25.40;39.40;;;;;;4949712;28;45264;-65
2023/06/18 07:35:39;;;;;;;5.90;5.30;;;25.50;39.50;;;;;;4946717;28;46712;-65
2023/06/18 07:38:07;;;;;;;7.32;6.10;;;25.50;39.50;;;;;;4954849;28;45264;-65
2023/06/18 07:40:33;;;;;;;7.95;6.15;;;25.50;39.50;;;;;;4947648;28;45271;-65
2023/06/18 07:43:00;;;;;;;8.02;5.38;;;25.50;39.50;;;;;;4930051;28;45130;-65
2023/06/18 07:45:26;;;;;;;6.82;5.80;;;25.60;39.50;;;;;;4940217;28;45797;-65
2023/06/18 07:47:51;;;;;;;8.73;5.90;;;25.60;39.40;;;;;;4950587;28;45937;-65
2023/06/18 07:50:17;;;;;;;6.40;5.80;;;25.60;39.50;;;;;;4947257;28;45260;-64
2023/06/18 07:52:42;;;;;;;6.95;6.25;;;25.70;39.60;;;;;;4943591;28;45660;-65
2023/06/18 07:55:09;;;;;;;6.25;5.22;;;25.70;39.50;;;;;;4950051;28;45257;-65
2023/06/18 07:57:35;;;;;;;6.30;5.40;;;25.70;39.40;;;;;;4939220;28;46117;-65
2023/06/18 08:00:00;;;;;;;6.18;5.28;;;25.70;39.40;;;;;;4941189;28;45204;-64
2023/06/18 08:02:26;;;;;;;5.13;4.63;;;25.80;39.40;;;;;;4926720;28;45353;-65
2023/06/18 08:04:51;;;;;;;5.68;5.05;;;25.80;39.30;;;;;;4934769;28;45296;-63
2023/06/18 08:07:17;;;;;;;6.40;5.15;;;25.80;39.30;;;;;;4945928;28;45612;-65
2023/06/18 08:09:42;;;;;;;7.07;5.80;;;25.90;39.30;;;;;;4952008;28;45178;-64
2023/06/18 08:12:08;;;;;;;5.72;5.18;;;25.90;39.20;;;;;;4943393;28;45113;-65
2023/06/18 08:14:33;;;;;;;6.82;5.00;;;25.90;39.10;;;;;;4951545;28;45010;-65
2023/06/18 08:16:59;;;;;;;6.40;5.10;;;26.00;39.10;;;;;;4923833;28;45704;-65
2023/06/18 08:19:25;;;;;;;8.57;5.63;;;26.00;39.10;;;;;;4920085;28;45390;-64
2023/06/18 08:21:52;;;;;;;6.85;5.88;;;26.00;39.00;;;;;;4928825;28;45442;-65
2023/06/18 08:24:17;;;;;;;6.75;6.05;;;26.10;38.90;;;;;;4948592;28;45401;-65
2023/06/18 08:26:43;;;;;;;6.10;5.40;;;26.10;38.90;;;;;;4944901;28;45984;-65
2023/06/18 08:29:09;;;;;;;6.07;5.22;;;26.10;38.80;;;;;;4929989;28;45194;-65
2023/06/18 08:31:35;;;;;;;8.73;6.00;;;26.10;38.80;;;;;;4926569;28;45714;-66
2023/06/18 08:34:01;;;;;;;6.75;5.50;;;26.10;38.70;;;;;;4917807;28;45202;-66
2023/06/18 08:36:26;;;;;;;6.05;5.40;;;26.20;38.80;;;;;;4929982;28;46936;-64
2023/06/18 08:38:52;;;;;;;6.18;5.55;;;26.20;38.70;;;;;;4950400;28;45912;-66
2023/06/18 08:41:17;;;;;;;6.65;5.72;;;26.20;38.60;;;;;;4915249;28;45140;-65
2023/06/18 08:43:43;;;;;;;6.47;5.63;;;26.20;38.60;;;;;;4950259;28;46356;-67
2023/06/18 08:46:10;;;;;;;6.53;5.55;;;26.30;38.60;;;;;;4922745;28;46059;-64
2023/06/18 08:48:58;;;;;;;5.95;5.35;;;26.30;38.60;;;;;;4951241;28;45354;-66
2023/06/18 08:51:24;;;;;;;5.95;5.35;;;26.30;38.60;;;;;;4946902;28;46148;-66
2023/06/18 08:54:05;;;;;;;6.07;5.47;;;26.30;38.50;;;;;;4943374;28;45605;-65
2023/06/18 08:56:30;;;;;;;5.97;5.20;;;26.30;38.50;;;;;;4951029;28;45310;-65
2023/06/18 08:58:57;;;;;;;5.80;5.22;;;26.30;38.50;;;;;;4924257;28;45571;-65
2023/06/18 09:01:23;;;;;;;7.05;5.32;;;26.30;38.40;;;;;;4940449;28;45296;-66
2023/06/18 09:03:49;;;;;;;6.75;5.68;;;26.40;38.50;;;;;;4919705;28;45907;-63
2023/06/18 09:06:15;;;;;;;5.88;5.28;;;26.40;38.50;;;;;;4937035;28;46096;-65
2023/06/18 09:08:41;;;;;;;5.53;4.88;;;26.40;38.40;;;;;;4960931;28;45544;-65
2023/06/18 09:11:06;;;;;;;5.97;5.18;;;26.40;38.40;;;;;;4940152;28;45736;-65
2023/06/18 09:13:32;;;;;;;7.53;5.60;;;26.40;38.30;;;;;;4951745;28;45139;-65
2023/06/18 09:15:59;;;;;;;5.65;5.00;;;26.50;38.40;;;;;;4936001;28;46125;-64
2023/06/18 09:18:25;;;;;;;5.50;5.00;;;26.50;38.40;;;;;;4919761;28;45542;-65
2023/06/18 09:20:53;;;;;;;5.68;5.18;;;26.50;38.30;;;;;;4939733;28;45835;-64
2023/06/18 09:23:19;;;;;;;6.80;5.70;;;26.50;38.30;;;;;;4950360;28;45555;-64
2023/06/18 09:25:52;;;;;;;5.85;5.22;;;26.50;38.30;;;;;;4948732;28;47509;-66
2023/06/18 09:28:19;;;;;;;5.50;5.00;;;26.50;38.20;;;;;;4923766;28;45292;-66
2023/06/18 09:30:56;;;;;;;6.18;5.25;;;26.50;38.30;;;;;;4945510;28;45423;-66
2023/06/18 09:33:35;;;;;;;5.72;5.07;;;26.60;38.30;;;;;;4944856;28;45234;-65
2023/06/18 09:36:05;;;;;;;7.93;5.22;;;26.60;38.20;;;;;;4920908;28;45318;-62
2023/06/18 09:38:38;;;;;;;6.10;5.50;;;26.60;38.20;;;;;;4931594;28;45030;-65
2023/06/18 09:41:18;;;;;;;5.35;4.82;;;26.60;38.20;;;;;;4916607;28;46091;-64
2023/06/18 09:43:47;;;;;;;8.05;5.70;;;26.60;38.20;;;;;;4950180;28;45260;-65
2023/06/18 09:46:14;;;;;;;6.10;5.50;;;26.60;38.10;;;;;;4923019;28;47483;-63
2023/06/18 09:48:41;;;;;;;7.63;5.28;;;26.60;38.30;;;;;;4918718;28;45293;-65
2023/06/18 09:51:07;;;;;;;6.45;5.07;;;26.70;38.10;;;;;;4951139;28;45336;-65
2023/06/18 09:53:33;;;;;;;5.57;5.07;;;26.70;38.10;;;;;;4927213;28;45676;-65
2023/06/18 09:56:12;;;;;;;6.03;5.40;;;26.70;38.10;;;;;;4924359;28;45583;-65
2023/06/18 09:58:48;;;;;;;5.90;5.22;;;26.80;38.10;;;;;;4942838;28;45329;-64
2023/06/18 10:01:15;;;;;;;7.63;5.00;;;26.80;38.10;;;;;;4941919;28;45337;-66
2023/06/18 10:03:41;;;;;;;5.95;4.90;;;26.80;38.10;;;;;;4924147;28;45118;-66
2023/06/18 10:06:27;;;;;;;6.28;5.13;;;26.80;38.00;;;;;;4939654;28;44922;-65
2023/06/18 10:08:55;;;;;;;5.63;5.03;;;26.80;37.90;;;;;;4954136;28;45315;-62
2023/06/18 10:11:21;;;;;;;5.43;4.93;;;26.80;37.90;;;;;;4935884;28;45266;-65
2023/06/18 10:13:53;;;;;;;7.45;5.40;;;26.90;38.00;;;;;;4955214;28;45296;-65
2023/06/18 10:16:19;;;;;;;6.13;5.03;;;26.90;38.00;;;;;;4944251;28;45213;-65
2023/06/18 10:19:06;;;;;;;6.32;5.40;;;26.90;37.90;;;;;;4942424;28;45221;-63
2023/06/18 10:21:49;;;;;;;6.10;5.30;;;26.90;37.80;;;;;;4954003;28;45276;-62
2023/06/18 10:24:17;;;;;;;5.18;4.70;;;26.90;37.80;;;;;;4943031;28;44759;-65
2023/06/18 10:26:42;;;;;;;5.35;4.82;;;26.90;37.80;;;;;;4933284;28;46027;-65
2023/06/18 10:29:10;;;;;;;5.38;4.88;;;27.00;37.80;;;;;;4955469;28;44644;-65
2023/06/18 10:31:37;;;;;;;5.40;4.85;;;27.00;37.80;;;;;;4916079;28;45268;-65
2023/06/18 10:34:02;;;;;;;6.05;5.45;;;27.00;37.80;;;;;;4942318;28;45902;-63
2023/06/18 10:36:28;;;;;;;5.30;4.80;;;27.00;37.80;;;;;;4946277;28;45772;-65
2023/06/18 10:38:54;;;;;;;5.65;4.70;;;27.00;37.80;;;;;;4946495;28;44864;-65
2023/06/18 10:41:20;;;;;;;5.45;4.65;;;27.00;37.70;;;;;;4917142;28;45360;-66
2023/06/18 10:43:52;;;;;;;5.68;5.03;;;27.00;37.70;;;;;;4940493;28;45438;-66
2023/06/18 10:46:18;;;;;;;5.45;4.85;;;27.10;37.70;;;;;;4938212;28;45892;-66
2023/06/18 10:49:16;;;;;;;5.13;4.63;;;27.10;37.70;;;;;;4928204;28;45720;-65
2023/06/18 10:51:57;;;;;;;4.93;4.43;;;27.10;37.60;;;;;;4950629;28;45653;-64
2023/06/18 10:54:33;;;;;;;5.20;4.68;;;27.00;37.60;;;;;;4948736;28;44807;-64
2023/06/18 10:56:59;;;;;;;5.80;4.90;;;27.10;37.60;;;;;;4928384;28;46048;-62
2023/06/18 10:59:44;;;;;;;5.30;4.80;;;27.10;38.30;;;;;;4941030;28;45252;-64
2023/06/18 11:02:11;;;;;;;5.20;4.70;;;27.10;37.50;;;;;;4940728;28;45820;-65
2023/06/18 11:04:36;;;;;;;5.45;4.93;;;27.10;37.60;;;;;;4921124;28;44750;-65
2023/06/18 11:07:15;;;;;;;5.22;4.72;;;27.20;37.70;;;;;;4939101;28;46021;-65
2023/06/18 11:09:58;;;;;;;7.35;4.80;;;27.20;37.50;;;;;;4938206;28;45107;-65
2023/06/18 11:12:25;;;;;;;5.40;4.90;;;27.20;37.50;;;;;;4926699;28;45661;-64
2023/06/18 11:15:14;;;;;;;5.57;4.97;;;27.20;37.60;;;;;;4942332;28;45589;-64
2023/06/18 11:17:41;;;;;;;4.80;4.32;;;27.20;37.50;;;;;;4947261;28;45337;-64
2023/06/18 11:20:07;;;;;;;4.50;4.10;;;27.30;37.60;;;;;;4939937;28;45552;-65
2023/06/18 11:22:33;;;;;;;4.65;4.18;;;27.30;37.60;;;;;;4906008;28;45870;-64
2023/06/18 11:24:59;;;;;;;6.07;4.88;;;27.30;37.50;;;;;;4942188;28;45188;-65
2023/06/18 11:27:25;;;;;;;5.00;4.50;;;27.20;37.50;;;;;;4935042;28;47039;-64
2023/06/18 11:29:56;;;;;;;4.95;4.53;;;27.30;37.50;;;;;;4944098;28;45206;-65
2023/06/18 11:32:23;;;;;;;5.03;4.45;;;27.30;37.40;;;;;;4921951;28;46359;-65
2023/06/18 11:34:49;;;;;;;5.95;5.20;;;27.40;37.40;;;;;;4958004;28;45523;-65
2023/06/18 11:37:15;;;;;;;5.50;5.00;;;27.40;37.50;;;;;;4951699;28;46120;-64
2023/06/18 11:39:41;;;;;;;5.20;4.70;;;27.40;37.40;;;;;;4941444;28;45001;-66
2023/06/18 11:42:20;;;;;;;5.10;4.60;;;27.40;38.00;;;;;;4930107;28;45721;-64
2023/06/18 11:44:47;;;;;;;5.03;4.43;;;27.40;37.30;;;;;;4937178;28;46240;-65
2023/06/18 11:47:13;;;;;;;6.72;4.65;;;27.40;37.30;;;;;;4920794;28;45964;-64
2023/06/18 11:49:43;;;;;;;5.25;4.75;;;27.40;37.30;;;;;;4939743;28;45258;-64
2023/06/18 11:52:09;;;;;;;4.40;4.00;;;27.50;37.30;;;;;;4933421;28;45671;-63
2023/06/18 11:54:38;;;;;;;5.72;4.85;;;27.40;37.30;;;;;;4915261;28;45432;-64
2023/06/18 11:57:09;;;;;;;5.30;4.45;;;27.50;37.30;;;;;;4933757;28;47457;-63
2023/06/18 11:59:35;;;;;;;4.80;4.35;;;27.50;37.30;;;;;;4935877;28;45401;-65
2023/06/18 12:02:16;;;;;;;4.88;4.38;;;27.50;37.30;;;;;;4920171;28;45826;-67
2023/06/18 12:04:45;;;;;;;5.15;4.60;;;27.50;37.30;;;;;;4926926;28;45536;-64
2023/06/18 12:07:23;;;;;;;4.45;4.05;;;27.50;37.30;;;;;;4940769;28;46012;-65
2023/06/18 12:09:51;;;;;;;4.68;4.28;;;27.50;37.20;;;;;;4934224;28;44936;-65
2023/06/18 12:12:24;;;;;;;4.82;4.43;;;27.50;37.20;;;;;;4928044;28;45568;-65
2023/06/18 12:14:55;;;;;;;4.97;4.32;;;27.60;37.20;;;;;;4946877;28;45375;-65
2023/06/18 12:17:30;;;;;;;4.88;4.47;;;27.60;37.30;;;;;;4908810;28;46060;-65
2023/06/18 12:20:05;;;;;;;5.05;4.55;;;27.60;37.20;;;;;;4948548;28;45251;-65
2023/06/18 12:22:36;;;;;;;4.65;4.25;;;27.60;37.10;;;;;;4930681;28;45534;-65
2023/06/18 12:25:05;;;;;;;4.75;4.35;;;27.60;37.10;;;;;;4933339;28;46263;-65
2023/06/18 12:27:31;;;;;;;5.88;4.25;;;27.60;37.10;;;;;;4932480;28;46101;-64
2023/06/18 12:30:00;;;;;;;5.03;4.53;;;27.60;37.10;;;;;;4935140;28;45216;-65
2023/06/18 12:32:26;;;;;;;6.18;4.70;;;27.60;37.00;;;;;;4920727;28;45289;-64
2023/06/18 12:34:51;;;;;;;4.07;3.72;;;27.60;37.00;;;;;;4935945;28;45586;-65
2023/06/18 12:37:17;;;;;;;4.90;4.43;;;27.60;37.00;;;;;;4928056;28;46024;-66
2023/06/18 12:40:20;;;;;;;5.65;4.78;;;27.60;37.10;;;;;;4936118;28;45538;-64
2023/06/18 12:42:46;;;;;;;5.00;4.47;;;27.70;37.10;;;;;;4933081;28;45276;-64
2023/06/18 12:45:12;;;;;;;5.20;4.70;;;27.70;37.20;;;;;;4899697;28;45070;-63
2023/06/18 12:47:39;;;;;;;5.10;4.60;;;27.70;37.20;;;;;;4945937;28;45266;-65
2023/06/18 12:50:06;;;;;;;5.00;4.50;;;27.70;37.10;;;;;;4932321;28;44723;-66
2023/06/18 12:52:43;;;;;;;4.78;4.35;;;27.70;37.20;;;;;;4928524;28;45377;-62
2023/06/18 12:55:15;;;;;;;4.50;4.10;;;27.70;37.10;;;;;;4928833;28;45479;-64
2023/06/18 12:57:45;;;;;;;4.70;4.20;;;27.70;37.10;;;;;;4926679;28;45754;-66
2023/06/18 13:00:21;;;;;;;4.63;4.22;;;27.70;37.10;;;;;;4943346;28;45410;-63
2023/06/18 13:02:48;;;;;;;5.65;4.72;;;27.70;37.10;;;;;;4945557;28;45132;-65
2023/06/18 13:05:14;;;;;;;4.88;4.38;;;27.70;37.10;;;;;;4946669;28;46807;-65
2023/06/18 13:07:46;;;;;;;4.75;4.35;;;27.70;37.10;;;;;;4936335;28;46475;-65
2023/06/18 13:10:12;;;;;;;4.90;4.40;;;27.80;37.10;;;;;;4951249;28;44690;-65
2023/06/18 13:12:38;;;;;;;4.65;4.25;;;27.80;37.10;;;;;;4932468;28;44927;-65
2023/06/18 13:15:05;;;;;;;4.72;4.32;;;27.70;37.00;;;;;;4936849;28;45139;-66
2023/06/18 13:17:30;;;;;;;4.45;4.05;;;27.80;37.10;;;;;;4918078;28;46743;-64
2023/06/18 13:19:56;;;;;;;4.30;3.90;;;27.80;37.00;;;;;;4956160;28;45464;-65
2023/06/18 13:22:22;;;;;;;4.55;4.13;;;27.80;37.00;;;;;;4918774;28;45202;-65
2023/06/18 13:24:48;;;;;;;4.38;3.85;;;27.80;37.00;;;;;;4952952;28;45090;-63
2023/06/18 13:27:13;;;;;;;4.57;4.18;;;27.80;37.00;;;;;;4949820;28;46266;-65
2023/06/18 13:29:39;;;;;;;4.95;4.30;;;27.80;37.10;;;;;;4955334;28;45538;-64
2023/06/18 13:32:05;;;;;;;6.20;4.45;;;27.80;37.00;;;;;;4923562;28;45516;-65
2023/06/18 13:34:33;;;;;;;4.70;4.30;;;27.80;37.00;;;;;;4931636;28;45421;-64
2023/06/18 13:36:59;;;;;;;4.82;4.28;;;27.80;37.00;;;;;;4938335;28;46135;-62
2023/06/18 13:39:25;;;;;;;4.65;4.20;;;27.90;37.10;;;;;;4952018;28;51146;-64
2023/06/18 13:41:50;;;;;;;4.30;3.55;;;27.90;37.00;;;;;;4930881;28;45604;-65
2023/06/18 13:44:17;;;;;;;5.07;4.28;;;27.90;37.00;;;;;;4949715;28;46363;-66
2023/06/18 13:46:42;;;;;;;4.78;4.38;;;27.90;37.00;;;;;;4947693;28;45316;-64
2023/06/18 13:49:08;;;;;;;4.90;4.45;;;27.90;37.00;;;;;;4954622;28;45549;-67
2023/06/18 13:51:33;;;;;;;4.40;4.00;;;27.90;37.00;;;;;;4928509;28;45269;-64
2023/06/18 13:53:59;;;;;;;5.05;4.63;;;27.90;37.00;;;;;;4953860;28;45520;-62
2023/06/18 13:56:24;;;;;;;5.63;4.70;;;27.90;37.10;;;;;;4916689;28;46963;-63
2023/06/18 13:58:50;;;;;;;4.60;4.20;;;27.90;37.00;;;;;;4947988;28;45030;-63
2023/06/18 14:01:15;;;;;;;5.00;4.53;;;28.00;37.10;;;;;;4942521;28;45524;-64
2023/06/18 14:03:41;;;;;;;4.35;3.92;;;27.90;37.00;;;;;;4931815;28;45386;-64
2023/06/18 14:06:07;;;;;;;4.78;4.28;;;28.00;37.10;;;;;;4945945;28;46153;-64
2023/06/18 14:08:32;;;;;;;4.45;4.05;;;28.00;37.00;;;;;;4952427;28;45265;-65
2023/06/18 14:10:58;;;;;;;4.70;4.18;;;28.00;36.90;;;;;;4938376;28;45415;-65
2023/06/18 14:13:24;;;;;;;4.57;4.18;;;28.00;37.00;;;;;;4952259;28;44778;-64
2023/06/18 14:15:49;;;;;;;5.75;4.97;;;28.00;36.90;;;;;;4941775;28;45642;-63
2023/06/18 14:18:15;;;;;;;4.97;4.47;;;28.00;36.90;;;;;;4943901;28;45603;-67
2023/06/18 14:20:41;;;;;;;4.95;4.45;;;28.00;36.90;;;;;;4926091;28;45801;-65
2023/06/18 14:23:06;;;;;;;4.35;3.95;;;28.00;36.90;;;;;;4934231;28;45509;-64
2023/06/18 14:25:32;;;;;;;4.50;4.10;;;28.00;36.90;;;;;;4946681;28;45744;-63
2023/06/18 14:27:58;;;;;;;4.82;4.43;;;28.10;36.90;;;;;;4913602;28;46178;-63
2023/06/18 14:30:24;;;;;;;5.10;4.60;;;28.10;37.00;;;;;;4944299;28;45655;-64
2023/06/18 14:32:49;;;;;;;4.78;4.25;;;28.10;36.90;;;;;;4945353;28;45804;-63
2023/06/18 14:35:15;;;;;;;4.47;4.07;;;28.10;36.90;;;;;;4939157;28;45347;-64
2023/06/18 14:37:41;;;;;;;4.15;3.75;;;28.10;36.90;;;;;;4944893;28;45507;-65
2023/06/18 14:40:07;;;;;;;4.80;4.40;;;28.10;37.00;;;;;;4929219;28;45460;-64
2023/06/18 14:42:33;;;;;;;4.57;4.18;;;28.10;36.90;;;;;;4933097;28;45219;-63
2023/06/18 14:44:58;;;;;;;4.88;4.35;;;28.10;36.90;;;;;;4933709;28;47480;-64
2023/06/18 14:47:24;;;;;;;6.18;4.60;;;28.10;37.00;;;;;;4938164;28;45469;-65
2023/06/18 14:49:54;;;;;;;4.78;4.38;;;28.10;37.00;;;;;;4931312;28;45274;-65
2023/06/18 14:52:21;;;;;;;4.38;3.97;;;28.10;37.00;;;;;;4947559;28;45421;-64
2023/06/18 14:54:47;;;;;;;4.55;4.15;;;28.10;37.00;;;;;;4929898;28;46211;-64
2023/06/18 14:57:12;;;;;;;4.50;4.10;;;28.10;37.00;;;;;;4944463;28;46767;-65
2023/06/18 14:59:38;;;;;;;4.88;4.40;;;28.10;37.00;;;;;;4943536;28;44935;-62
2023/06/18 15:02:04;;;;;;;4.63;4.22;;;28.10;36.90;;;;;;4937487;28;45436;-64
2023/06/18 15:04:30;;;;;;;4.75;4.35;;;28.10;36.90;;;;;;4953865;28;44893;-65
2023/06/18 15:06:55;;;;;;;4.43;4.03;;;28.10;36.90;;;;;;4944304;28;46259;-65
2023/06/18 15:09:21;;;;;;;4.68;4.13;;;28.10;36.90;;;;;;4937460;28;45153;-65
2023/06/18 15:11:46;;;;;;;4.32;3.92;;;28.10;36.90;;;;;;4949463;28;44861;-64
2023/06/18 15:14:12;;;;;;;4.88;4.38;;;28.10;37.00;;;;;;4955302;28;46181;-65
2023/06/18 15:16:37;;;;;;;4.40;4.00;;;28.10;36.90;;;;;;4928639;28;46853;-65
2023/06/18 15:19:03;;;;;;;4.70;3.83;;;28.10;37.00;;;;;;4943964;28;44720;-65
2023/06/18 15:21:28;;;;;;;4.65;4.15;;;28.10;37.00;;;;;;4944711;28;45397;-65
2023/06/18 15:23:54;;;;;;;4.40;4.00;;;28.10;37.00;;;;;;4949086;28;46949;-65
2023/06/18 15:26:20;;;;;;;4.60;4.20;;;28.10;37.00;;;;;;4933309;28;44974;-65
2023/06/18 15:28:46;;;;;;;5.32;4.50;;;28.10;37.00;;;;;;4936956;28;45122;-65
2023/06/18 15:31:12;;;;;;;4.70;4.30;;;28.10;37.00;;;;;;4923226;28;45293;-66
2023/06/18 15:33:38;;;;;;;4.75;4.35;;;28.10;37.00;;;;;;4919949;28;47061;-64
2023/06/18 15:36:04;;;;;;;4.25;3.85;;;28.10;37.00;;;;;;4933967;28;45366;-65
2023/06/18 15:38:30;;;;;;;4.75;4.28;;;28.20;37.00;;;;;;4898110;28;45144;-65
2023/06/18 15:40:55;;;;;;;5.07;4.57;;;28.10;37.00;;;;;;4945705;28;45294;-64
2023/06/18 15:43:21;;;;;;;4.10;3.72;;;28.20;37.00;;;;;;4940348;28;46643;-65
2023/06/18 15:45:47;;;;;;;4.90;4.40;;;28.20;37.00;;;;;;4941133;28;45039;-65